Kona International At Keahole Airport Kailua/Kona US
ICAO: PHKO
IATA: KOA
Category: Medium
Scheduled Services:

Elevation: 47 ft
TransAlt. 18000 ft.

Airport Communications:
ATIS:127.4
CLNC DEL:121.9
HONOLULU CNTR:126
CTAF:120.3
HONOLULU:123.6
TWR:120.3

PHKO Zoom In..

If you have problems with the map follow the link
https://www.worldairports.se/pages/airport.php?
ICAO=PHKO

Runways:

(A) RW 17 length 11000 ft width 150 ft
ILS 109.70 / hdg 174

(B) RW 35 length 11000 ft width 150 ft
---- / hdg 354

Location; PHKO
Day. 16 / Time. 11.53 Zulu
* Altimeter: 29.93
* Temperature: 24° c. 75.2°f.
* Wind from: 100° Speed 05 kn.
Dewpoint: 17° c.
Visibility: 10 Statute Miles.
Clouds: Clear (automated report).

PHKO 161153Z AUTO 10005KT 10SM CLR 24/17 A2993 RMK AO2 SLP135 T02390172 10256 20239 58008 TSNO


Wind From 100°
Speed 05 kn.

 
 
jpsmedia.com for Web Design worldairports.se 2018   terms of use